Time;durP1;ratioP1;P1;durP2;ratioP2;P2;SDS_P1;SDS_P2;PMS_P1;PMS_P2;Temp;Humidity;BMP_temperature;BMP_pressure;BME280_temperature;BME280_humidity;BME280_pressure;Samples;Min_cycle;Max_cycle;Signal;HPM_P1;HPM_P2
2021/05/24 00:01:07;;;;;;;5.13;4.63;;;8.90;99.90;;;;;;5083035;28;20200;-50
2021/05/24 00:03:33;;;;;;;6.07;4.70;;;8.90;99.90;;;;;;5072479;28;20190;-47
2021/05/24 00:05:59;;;;;;;5.33;4.83;;;8.90;99.90;;;;;;5084672;28;20207;-49
2021/05/24 00:08:27;;;;;;;5.87;5.13;;;8.90;99.90;;;;;;5080430;28;20205;-52
2021/05/24 00:10:53;;;;;;;7.83;4.63;;;8.90;99.90;;;;;;5084070;28;20190;-48
2021/05/24 00:13:21;;;;;;;5.07;4.60;;;8.90;99.90;;;;;;5076142;28;20691;-48
2021/05/24 00:15:51;;;;;;;5.57;4.87;;;8.90;99.90;;;;;;5064201;28;20215;-51
2021/05/24 00:18:17;;;;;;;5.70;4.10;;;8.90;99.90;;;;;;5056022;28;20201;-47
2021/05/24 00:20:47;;;;;;;4.97;4.57;;;8.90;99.90;;;;;;5082339;28;20206;-50
2021/05/24 00:23:13;;;;;;;7.13;4.60;;;8.90;99.90;;;;;;5096030;28;20194;-48
2021/05/24 00:25:40;;;;;;;7.27;4.77;;;8.80;99.90;;;;;;5103404;28;20205;-50
2021/05/24 00:28:11;;;;;;;7.97;5.00;;;8.90;99.90;;;;;;5102983;27;20217;-50
2021/05/24 00:30:38;;;;;;;4.67;4.27;;;8.90;99.90;;;;;;5102045;28;20190;-49
2021/05/24 00:33:05;;;;;;;6.27;4.83;;;8.90;99.90;;;;;;5099390;28;20662;-46
2021/05/24 00:35:32;;;;;;;5.37;4.40;;;8.90;99.90;;;;;;5071489;28;20222;-48
2021/05/24 00:38:00;;;;;;;6.60;5.70;;;8.90;99.90;;;;;;5083973;28;20208;-48
2021/05/24 00:40:26;;;;;;;4.60;4.20;;;8.90;99.90;;;;;;5077363;28;20201;-50
2021/05/24 00:42:55;;;;;;;5.27;4.50;;;8.90;99.90;;;;;;5104153;28;20201;-48
2021/05/24 00:45:21;;;;;;;5.23;4.03;;;8.90;99.90;;;;;;5082499;28;20205;-50
2021/05/24 00:47:47;;;;;;;5.07;4.50;;;9.00;99.90;;;;;;5083431;28;20202;-49
2021/05/24 00:50:13;;;;;;;5.23;3.73;;;9.00;99.90;;;;;;5062925;28;20256;-44
2021/05/24 00:52:40;;;;;;;4.30;3.90;;;9.10;99.90;;;;;;5080007;28;20198;-49
2021/05/24 00:55:08;;;;;;;5.13;4.57;;;9.10;99.90;;;;;;5082474;28;20197;-45
2021/05/24 00:57:35;;;;;;;5.03;4.30;;;9.10;99.90;;;;;;5076310;28;20186;-49
2021/05/24 01:00:03;;;;;;;5.03;4.10;;;9.10;99.90;;;;;;5082901;28;20277;-49
2021/05/24 01:02:29;;;;;;;4.43;4.03;;;9.10;99.90;;;;;;5077962;28;20205;-49
2021/05/24 01:04:56;;;;;;;4.03;3.63;;;9.10;99.90;;;;;;5068950;28;20683;-49
2021/05/24 01:07:22;;;;;;;5.83;4.00;;;9.10;99.90;;;;;;5073786;28;20967;-52
2021/05/24 01:09:48;;;;;;;5.63;3.77;;;9.10;99.90;;;;;;5082267;28;20194;-47
2021/05/24 01:12:15;;;;;;;4.30;3.90;;;9.10;99.90;;;;;;5079587;28;20229;-49
2021/05/24 01:14:41;;;;;;;4.30;3.70;;;9.10;99.90;;;;;;5082569;28;20193;-49
2021/05/24 01:17:08;;;;;;;5.20;3.93;;;9.20;99.90;;;;;;5099762;28;20266;-51
2021/05/24 01:19:34;;;;;;;4.40;4.10;;;9.20;99.90;;;;;;5082424;28;20198;-45
2021/05/24 01:22:01;;;;;;;4.87;3.90;;;9.20;99.90;;;;;;5066513;28;20718;-46
2021/05/24 01:24:28;;;;;;;5.60;3.83;;;9.20;99.90;;;;;;5079501;28;20186;-48
2021/05/24 01:26:54;;;;;;;6.13;4.17;;;9.20;99.90;;;;;;5078942;28;20634;-45
2021/05/24 01:29:20;;;;;;;5.03;3.67;;;9.20;99.90;;;;;;5078655;28;20702;-47
2021/05/24 01:31:47;;;;;;;5.00;4.50;;;9.30;99.90;;;;;;5081396;28;20277;-46
2021/05/24 01:34:13;;;;;;;4.37;3.73;;;9.20;99.90;;;;;;5080598;28;20190;-47
2021/05/24 01:36:40;;;;;;;3.70;3.40;;;9.30;99.90;;;;;;5067136;28;20490;-50
2021/05/24 01:39:08;;;;;;;6.23;4.03;;;9.20;99.90;;;;;;5081102;28;20196;-47
2021/05/24 01:41:34;;;;;;;6.70;4.67;;;9.30;99.90;;;;;;5081471;28;20298;-51
2021/05/24 01:44:00;;;;;;;4.03;3.73;;;9.30;99.90;;;;;;5096605;28;20207;-47
2021/05/24 01:46:26;;;;;;;4.73;3.37;;;9.30;99.90;;;;;;5099905;28;20213;-45
2021/05/24 01:48:53;;;;;;;4.33;3.67;;;9.30;99.90;;;;;;5086355;28;20243;-48
2021/05/24 01:51:19;;;;;;;5.20;3.17;;;9.30;99.90;;;;;;5067120;28;20213;-48
2021/05/24 01:53:45;;;;;;;7.13;3.70;;;9.30;99.90;;;;;;5077819;28;20206;-45
2021/05/24 01:56:12;;;;;;;7.53;4.13;;;9.20;99.90;;;;;;5085285;28;20297;-47
2021/05/24 01:58:38;;;;;;;3.50;3.20;;;9.20;99.90;;;;;;5085346;28;20242;-48
2021/05/24 02:01:05;;;;;;;4.40;3.73;;;9.20;99.90;;;;;;5086269;28;20540;-49
2021/05/24 02:03:32;;;;;;;4.47;3.83;;;9.20;99.90;;;;;;5083937;28;20196;-47
2021/05/24 02:06:00;;;;;;;5.67;3.00;;;9.20;99.90;;;;;;5086745;28;20220;-47
2021/05/24 02:08:26;;;;;;;7.50;3.70;;;9.20;99.90;;;;;;5066754;28;20214;-47
2021/05/24 02:10:53;;;;;;;4.10;3.23;;;9.20;99.90;;;;;;5085848;28;20209;-47
2021/05/24 02:13:20;;;;;;;3.93;3.40;;;9.20;99.90;;;;;;5082320;28;20198;-48
2021/05/24 02:15:46;;;;;;;4.40;3.30;;;9.20;99.90;;;;;;5087030;28;20245;-47
2021/05/24 02:18:12;;;;;;;4.30;3.87;;;9.20;99.90;;;;;;5078707;28;20201;-48
2021/05/24 02:20:38;;;;;;;6.63;3.50;;;9.20;99.90;;;;;;5084544;28;20261;-46
2021/05/24 02:23:07;;;;;;;3.10;2.90;;;9.30;99.90;;;;;;5060637;28;20222;-48
2021/05/24 02:25:33;;;;;;;5.03;3.13;;;9.30;99.90;;;;;;5078647;28;20806;-50
2021/05/24 02:27:59;;;;;;;6.70;2.63;;;9.30;99.90;;;;;;5086657;28;20213;-47
2021/05/24 02:30:27;;;;;;;4.27;3.10;;;9.20;99.90;;;;;;5076569;28;20198;-46
2021/05/24 02:32:54;;;;;;;4.60;3.20;;;9.20;99.90;;;;;;5086449;28;20190;-47
2021/05/24 02:35:23;;;;;;;4.27;3.07;;;9.30;99.90;;;;;;5080005;28;20209;-48
2021/05/24 02:37:49;;;;;;;5.97;2.80;;;9.30;99.90;;;;;;5071534;28;20206;-47
2021/05/24 02:40:17;;;;;;;4.70;2.77;;;9.30;99.90;;;;;;5082557;28;20602;-46
2021/05/24 02:42:43;;;;;;;4.17;3.03;;;9.30;99.90;;;;;;5103916;28;20208;-51
2021/05/24 02:45:12;;;;;;;4.60;2.93;;;9.30;99.90;;;;;;5104565;27;20201;-47
2021/05/24 02:47:39;;;;;;;4.27;2.93;;;9.30;99.90;;;;;;5104696;28;20308;-47
2021/05/24 02:50:07;;;;;;;4.77;3.30;;;9.30;99.90;;;;;;5084236;28;20205;-45
2021/05/24 02:52:33;;;;;;;3.37;2.40;;;9.30;99.90;;;;;;5081214;28;20202;-50
2021/05/24 02:55:00;;;;;;;3.80;2.90;;;9.30;99.90;;;;;;5086218;28;20200;-46
2021/05/24 02:57:26;;;;;;;3.97;2.50;;;9.30;99.90;;;;;;5081857;28;20285;-47
2021/05/24 02:59:52;;;;;;;3.10;2.80;;;9.30;99.90;;;;;;5085697;28;20198;-48
2021/05/24 03:02:25;;;;;;;3.27;2.73;;;9.30;99.90;;;;;;5082150;28;20243;-45
2021/05/24 03:04:52;;;;;;;3.37;2.80;;;9.30;99.90;;;;;;5079016;28;20658;-46
2021/05/24 03:07:18;;;;;;;2.73;2.50;;;9.30;99.90;;;;;;5069311;28;20343;-47
2021/05/24 03:09:45;;;;;;;4.00;3.23;;;9.30;99.90;;;;;;5083482;28;20209;-47
2021/05/24 03:12:11;;;;;;;3.83;2.63;;;9.30;99.90;;;;;;5077526;28;20212;-44
2021/05/24 03:14:37;;;;;;;3.00;2.20;;;9.30;99.90;;;;;;5083617;28;20209;-51
2021/05/24 03:17:03;;;;;;;3.17;2.17;;;9.40;99.90;;;;;;5084894;28;20267;-45
2021/05/24 03:19:29;;;;;;;2.90;2.57;;;9.40;99.90;;;;;;5074661;28;20459;-45
2021/05/24 03:21:56;;;;;;;2.90;2.67;;;9.40;99.90;;;;;;5082869;28;20198;-49
2021/05/24 03:24:22;;;;;;;2.57;2.37;;;9.40;99.90;;;;;;5066807;28;20198;-53
2021/05/24 03:26:49;;;;;;;5.13;2.80;;;9.40;99.90;;;;;;5085282;28;20210;-47
2021/05/24 03:29:15;;;;;;;2.40;2.17;;;9.40;99.90;;;;;;5080106;28;20209;-45
2021/05/24 03:31:41;;;;;;;2.83;2.63;;;9.40;99.90;;;;;;5093609;28;20207;-47
2021/05/24 03:34:07;;;;;;;2.40;2.20;;;9.40;99.90;;;;;;5094128;28;20685;-46
2021/05/24 03:36:33;;;;;;;4.30;2.37;;;9.40;99.90;;;;;;5082464;28;20213;-47
2021/05/24 03:39:00;;;;;;;5.43;2.80;;;9.40;99.90;;;;;;5084724;28;20539;-47
2021/05/24 03:41:26;;;;;;;2.63;1.90;;;9.40;99.90;;;;;;5061316;28;20211;-47
2021/05/24 03:43:53;;;;;;;2.97;2.17;;;9.40;99.90;;;;;;5082204;28;20198;-49
2021/05/24 03:46:19;;;;;;;3.37;2.60;;;9.40;99.90;;;;;;5081236;28;20218;-45
2021/05/24 03:48:45;;;;;;;4.17;2.37;;;9.50;99.90;;;;;;5084005;28;20575;-47
2021/05/24 03:51:11;;;;;;;2.93;2.13;;;9.50;99.90;;;;;;5082789;28;20201;-49
2021/05/24 03:53:37;;;;;;;2.27;2.03;;;9.50;99.90;;;;;;5082840;28;20186;-48
2021/05/24 03:56:04;;;;;;;2.57;1.90;;;9.50;99.90;;;;;;5069997;28;20591;-47
2021/05/24 03:58:31;;;;;;;3.33;2.10;;;9.60;99.90;;;;;;5077343;28;20219;-47
2021/05/24 04:00:57;;;;;;;5.30;2.00;;;9.60;99.90;;;;;;5078130;28;20742;-48
2021/05/24 04:03:23;;;;;;;3.87;2.10;;;9.60;99.90;;;;;;5078861;28;20186;-48
2021/05/24 04:05:54;;;;;;;2.57;1.90;;;9.70;99.90;;;;;;5078605;28;20633;-49
2021/05/24 04:08:20;;;;;;;2.40;1.80;;;9.70;99.90;;;;;;5080091;28;20202;-48
2021/05/24 04:10:51;;;;;;;5.13;1.67;;;9.70;99.90;;;;;;5083354;28;20559;-47
2021/05/24 04:13:18;;;;;;;3.00;1.70;;;9.80;99.90;;;;;;5066092;28;20250;-46
2021/05/24 04:15:46;;;;;;;2.33;1.67;;;9.80;99.90;;;;;;5084090;28;20210;-47
2021/05/24 04:18:15;;;;;;;4.00;1.83;;;9.80;99.90;;;;;;5072224;28;20202;-44
2021/05/24 04:20:43;;;;;;;2.83;1.23;;;9.90;99.90;;;;;;5080803;28;20675;-47
2021/05/24 04:23:09;;;;;;;3.40;1.80;;;9.90;99.90;;;;;;5073422;28;20221;-49
2021/05/24 04:25:35;;;;;;;2.53;2.07;;;9.90;99.90;;;;;;5081157;28;20941;-47
2021/05/24 04:28:01;;;;;;;4.67;1.80;;;9.90;99.90;;;;;;5065142;28;20763;-49
2021/05/24 04:30:28;;;;;;;2.80;1.60;;;9.90;99.90;;;;;;5075211;28;20186;-47
2021/05/24 04:32:54;;;;;;;3.30;1.90;;;9.90;99.90;;;;;;5082354;28;20194;-47
2021/05/24 04:35:20;;;;;;;3.83;1.90;;;9.90;99.90;;;;;;5079820;28;20188;-48
2021/05/24 04:37:47;;;;;;;4.03;1.80;;;10.00;99.90;;;;;;5079014;28;20197;-50
2021/05/24 04:40:13;;;;;;;5.20;1.60;;;10.00;99.90;;;;;;5077237;28;20198;-45
2021/05/24 04:42:40;;;;;;;4.27;2.10;;;10.00;99.90;;;;;;5062685;28;23382;-46
2021/05/24 04:45:07;;;;;;;1.87;1.63;;;10.00;99.90;;;;;;5078214;28;20198;-45
2021/05/24 04:47:34;;;;;;;2.27;1.63;;;10.00;99.90;;;;;;5080184;28;20929;-49
2021/05/24 04:50:00;;;;;;;2.47;1.40;;;10.00;99.90;;;;;;5077583;28;20272;-48
2021/05/24 04:52:26;;;;;;;3.37;1.90;;;10.00;99.90;;;;;;5074511;28;20210;-48
2021/05/24 04:54:52;;;;;;;4.10;2.40;;;10.10;99.90;;;;;;5079460;28;20201;-47
2021/05/24 04:57:19;;;;;;;4.13;1.67;;;10.10;99.90;;;;;;5065178;28;20414;-49
2021/05/24 04:59:46;;;;;;;4.73;1.83;;;10.10;99.90;;;;;;5082578;28;20227;-48
2021/05/24 05:02:12;;;;;;;3.23;1.60;;;10.10;99.90;;;;;;5080001;28;20206;-48
2021/05/24 05:04:39;;;;;;;3.13;1.60;;;10.20;99.90;;;;;;5081546;28;20247;-49
2021/05/24 05:07:05;;;;;;;2.10;1.60;;;10.20;99.90;;;;;;5077588;28;20213;-49
2021/05/24 05:09:31;;;;;;;2.90;1.80;;;10.20;99.90;;;;;;5070704;28;21624;-48
2021/05/24 05:11:57;;;;;;;2.03;1.50;;;10.20;99.90;;;;;;5081932;28;20198;-47
2021/05/24 05:14:24;;;;;;;2.10;1.33;;;10.30;99.90;;;;;;5061827;28;20190;-46
2021/05/24 05:16:50;;;;;;;1.50;1.40;;;10.40;99.90;;;;;;5066344;28;20249;-47
2021/05/24 05:19:17;;;;;;;2.20;1.40;;;10.50;99.90;;;;;;5058038;28;20248;-46
2021/05/24 05:21:44;;;;;;;1.80;1.47;;;10.70;99.90;;;;;;5070656;28;20251;-46
2021/05/24 05:24:10;;;;;;;1.70;1.20;;;10.80;99.90;;;;;;5076263;28;20225;-47
2021/05/24 05:26:36;;;;;;;1.50;1.17;;;10.90;99.90;;;;;;5072447;28;20226;-47
2021/05/24 05:29:03;;;;;;;5.30;1.57;;;11.00;99.90;;;;;;5067952;28;20624;-46
2021/05/24 05:31:29;;;;;;;2.13;1.07;;;11.10;99.90;;;;;;5079158;28;20194;-49
2021/05/24 05:33:55;;;;;;;4.37;1.50;;;11.10;99.90;;;;;;5081913;28;20205;-46
2021/05/24 05:36:23;;;;;;;2.30;1.10;;;11.20;99.90;;;;;;5076442;28;20226;-47
2021/05/24 05:38:51;;;;;;;1.50;1.30;;;11.20;99.90;;;;;;5076938;28;20693;-47
2021/05/24 05:41:17;;;;;;;3.70;1.43;;;11.30;99.90;;;;;;5077385;28;20652;-46
2021/05/24 05:43:43;;;;;;;1.07;1.00;;;11.30;99.90;;;;;;5076365;28;20208;-47
2021/05/24 05:46:10;;;;;;;2.37;1.23;;;11.40;99.90;;;;;;5066217;28;20271;-46
2021/05/24 05:48:36;;;;;;;2.67;0.90;;;11.40;99.90;;;;;;5079034;28;20206;-47
2021/05/24 05:51:03;;;;;;;2.00;1.33;;;11.40;99.90;;;;;;5074237;28;20267;-46
2021/05/24 05:53:29;;;;;;;2.10;1.10;;;11.40;99.90;;;;;;5074817;28;20206;-48
2021/05/24 05:55:56;;;;;;;2.60;1.23;;;11.40;99.90;;;;;;5077767;28;20225;-47
2021/05/24 05:58:22;;;;;;;2.50;1.10;;;11.40;99.90;;;;;;5074696;28;20190;-47
2021/05/24 06:00:48;;;;;;;2.13;1.30;;;11.40;99.90;;;;;;5068462;28;20247;-48
2021/05/24 06:03:15;;;;;;;1.83;1.00;;;11.40;99.90;;;;;;5080102;28;20183;-44
2021/05/24 06:05:42;;;;;;;2.87;1.40;;;11.50;99.90;;;;;;5076717;28;20775;-48
2021/05/24 06:08:08;;;;;;;2.90;1.13;;;11.60;99.90;;;;;;5076473;28;20230;-50
2021/05/24 06:10:34;;;;;;;1.23;1.13;;;11.60;99.90;;;;;;5068692;28;20297;-52
2021/05/24 06:13:02;;;;;;;3.00;1.20;;;11.80;99.90;;;;;;5088702;28;20229;-46
2021/05/24 06:15:28;;;;;;;1.20;1.10;;;11.90;99.90;;;;;;5079613;28;20220;-47
2021/05/24 06:17:54;;;;;;;4.10;1.27;;;12.00;99.90;;;;;;5068442;28;20221;-48
2021/05/24 06:20:21;;;;;;;2.93;1.17;;;12.10;99.90;;;;;;5075858;28;20202;-49
2021/05/24 06:22:47;;;;;;;1.20;0.97;;;12.20;99.90;;;;;;5073395;28;20202;-48
2021/05/24 06:25:14;;;;;;;2.03;1.30;;;12.30;99.90;;;;;;5077952;28;20194;-47
2021/05/24 06:27:40;;;;;;;1.00;0.90;;;12.40;99.90;;;;;;5076452;28;20202;-50
2021/05/24 06:30:10;;;;;;;3.20;1.13;;;12.50;99.90;;;;;;5083617;28;20202;-47
2021/05/24 06:32:36;;;;;;;2.27;1.20;;;12.60;99.90;;;;;;5068154;28;20214;-49
2021/05/24 06:35:03;;;;;;;1.37;1.03;;;12.70;99.90;;;;;;5081095;28;20967;-46
2021/05/24 06:37:29;;;;;;;4.03;1.00;;;12.80;99.90;;;;;;5085471;28;20289;-48
2021/05/24 06:39:55;;;;;;;3.40;1.00;;;12.90;99.90;;;;;;5072246;28;20205;-47
2021/05/24 06:42:22;;;;;;;2.53;1.00;;;13.00;99.90;;;;;;5079907;28;20716;-48
2021/05/24 06:44:48;;;;;;;2.60;1.17;;;13.10;99.90;;;;;;5077881;28;20946;-49
2021/05/24 06:47:15;;;;;;;1.80;1.30;;;13.20;99.90;;;;;;5086150;28;20202;-47
2021/05/24 06:49:41;;;;;;;1.47;0.90;;;13.30;99.90;;;;;;5064116;28;21014;-51
2021/05/24 06:52:07;;;;;;;0.90;0.80;;;13.30;99.90;;;;;;5080868;28;20202;-47
2021/05/24 06:54:36;;;;;;;2.83;0.90;;;13.40;99.90;;;;;;5081584;28;20327;-51
2021/05/24 06:57:04;;;;;;;0.77;0.60;;;13.50;99.90;;;;;;5085633;28;20217;-46
2021/05/24 06:59:31;;;;;;;1.17;0.90;;;13.60;99.90;;;;;;5068755;28;21065;-47
2021/05/24 07:01:58;;;;;;;1.77;1.10;;;13.70;99.90;;;;;;5085498;28;20201;-47
2021/05/24 07:04:25;;;;;;;1.50;0.87;;;13.80;99.90;;;;;;5064418;28;20194;-46
2021/05/24 07:06:52;;;;;;;1.33;0.90;;;13.90;99.90;;;;;;5079987;28;20222;-45
2021/05/24 07:09:18;;;;;;;2.23;1.27;;;14.00;99.90;;;;;;5078742;28;20214;-46
2021/05/24 07:11:44;;;;;;;0.90;0.67;;;14.10;99.90;;;;;;5083996;28;20333;-45
2021/05/24 07:14:10;;;;;;;1.00;0.80;;;14.10;99.90;;;;;;5081129;28;20182;-45
2021/05/24 07:16:37;;;;;;;2.27;0.80;;;14.20;99.90;;;;;;5081245;28;20298;-46
2021/05/24 07:19:03;;;;;;;1.60;0.60;;;14.20;99.90;;;;;;5079624;28;20247;-45
2021/05/24 07:21:30;;;;;;;1.20;0.67;;;14.30;99.90;;;;;;5097731;27;20271;-46
2021/05/24 07:23:56;;;;;;;1.17;0.80;;;14.50;99.90;;;;;;5085766;28;20213;-47
2021/05/24 07:26:23;;;;;;;2.10;0.67;;;14.60;99.90;;;;;;5076191;28;20201;-47
2021/05/24 07:28:49;;;;;;;1.53;1.00;;;14.60;99.90;;;;;;5079355;28;20210;-47
2021/05/24 07:31:15;;;;;;;1.80;0.70;;;14.70;99.90;;;;;;5076802;28;20568;-45
2021/05/24 07:33:41;;;;;;;4.70;1.60;;;14.70;99.90;;;;;;5079000;28;20198;-47
2021/05/24 07:36:07;;;;;;;2.27;0.70;;;14.80;99.90;;;;;;5066952;28;20225;-49
2021/05/24 07:38:35;;;;;;;1.20;0.80;;;14.90;99.90;;;;;;5078096;28;20285;-52
2021/05/24 07:41:01;;;;;;;3.80;1.00;;;15.00;99.90;;;;;;5081142;28;20682;-48
2021/05/24 07:43:27;;;;;;;0.67;0.60;;;15.00;99.90;;;;;;5073141;28;20248;-48
2021/05/24 07:45:53;;;;;;;0.97;0.40;;;15.10;99.90;;;;;;5071429;28;20218;-48
2021/05/24 07:48:19;;;;;;;1.60;0.70;;;15.20;99.90;;;;;;5080401;28;20210;-45
2021/05/24 07:50:45;;;;;;;0.97;0.70;;;15.30;99.90;;;;;;5059986;28;20198;-49
2021/05/24 07:53:12;;;;;;;2.47;0.70;;;15.40;99.90;;;;;;5073927;28;20206;-47
2021/05/24 07:55:39;;;;;;;0.87;0.57;;;15.50;99.90;;;;;;5081176;28;20897;-48
2021/05/24 07:58:05;;;;;;;1.87;0.83;;;15.60;99.90;;;;;;5075171;28;20247;-47
2021/05/24 08:00:31;;;;;;;6.10;1.53;;;15.70;99.90;;;;;;5077426;28;22856;-48
2021/05/24 08:02:57;;;;;;;2.77;0.70;;;15.80;99.90;;;;;;5093872;28;20190;-51
2021/05/24 08:05:23;;;;;;;1.17;0.67;;;15.90;99.90;;;;;;5063335;28;20202;-46
2021/05/24 08:07:51;;;;;;;1.40;0.70;;;16.00;99.90;;;;;;5084329;28;20198;-47
2021/05/24 08:10:17;;;;;;;1.90;0.57;;;16.00;99.90;;;;;;5074489;28;20201;-46
2021/05/24 08:12:46;;;;;;;1.87;0.53;;;16.10;99.90;;;;;;5077750;28;20198;-46
2021/05/24 08:15:15;;;;;;;0.97;0.60;;;16.10;99.90;;;;;;5076476;28;20217;-45
2021/05/24 08:17:41;;;;;;;2.37;0.60;;;16.20;99.90;;;;;;5067293;28;20198;-47
2021/05/24 08:20:09;;;;;;;1.23;0.60;;;16.20;99.90;;;;;;5082623;28;20239;-49
2021/05/24 08:22:36;;;;;;;0.70;0.40;;;16.20;99.90;;;;;;5062889;28;20209;-47
2021/05/24 08:25:03;;;;;;;0.90;0.67;;;16.40;99.90;;;;;;5078040;28;20194;-50
2021/05/24 08:27:30;;;;;;;0.83;0.63;;;16.50;99.90;;;;;;5081590;28;20221;-46
2021/05/24 08:29:57;;;;;;;1.50;0.60;;;16.60;99.90;;;;;;5073629;28;20392;-49
2021/05/24 08:32:23;;;;;;;1.70;0.40;;;16.60;99.90;;;;;;5085956;28;20190;-51
2021/05/24 08:34:49;;;;;;;1.27;0.57;;;16.70;99.90;;;;;;5079302;28;20178;-49
2021/05/24 08:37:15;;;;;;;1.77;0.50;;;16.90;99.90;;;;;;5064759;28;20248;-49
2021/05/24 08:39:43;;;;;;;0.73;0.40;;;17.00;99.90;;;;;;5076381;28;20273;-47
2021/05/24 08:42:09;;;;;;;2.83;0.50;;;17.20;99.90;;;;;;5072316;28;20964;-46
2021/05/24 08:44:37;;;;;;;1.60;0.30;;;17.20;99.90;;;;;;5078047;28;20250;-46
2021/05/24 08:47:05;;;;;;;1.20;0.87;;;17.30;99.90;;;;;;5072874;28;20252;-50
2021/05/24 08:49:31;;;;;;;0.53;0.43;;;17.30;99.90;;;;;;5081352;28;20434;-46
2021/05/24 08:51:58;;;;;;;1.23;0.50;;;17.40;99.90;;;;;;5058678;28;23130;-45
2021/05/24 08:54:24;;;;;;;2.07;0.50;;;17.50;99.90;;;;;;5079208;28;20201;-46
2021/05/24 08:56:50;;;;;;;1.97;0.50;;;17.70;99.90;;;;;;5073108;28;20233;-46
2021/05/24 08:59:17;;;;;;;1.73;0.60;;;17.80;99.70;;;;;;5071865;28;20905;-47
2021/05/24 09:01:43;;;;;;;0.63;0.37;;;17.80;99.30;;;;;;5073668;28;20679;-44
2021/05/24 09:04:10;;;;;;;1.30;0.57;;;17.90;99.50;;;;;;5078487;28;20575;-48
2021/05/24 09:06:38;;;;;;;0.70;0.47;;;18.00;99.10;;;;;;5068370;28;20698;-44
2021/05/24 09:09:08;;;;;;;0.90;0.40;;;;;;;;;;5070934;28;20217;-46
2021/05/24 09:11:34;;;;;;;0.90;0.67;;;18.20;99.20;;;;;;5070747;28;20210;-46
2021/05/24 09:14:01;;;;;;;1.03;0.50;;;18.20;98.60;;;;;;5076530;28;20273;-44
2021/05/24 09:16:28;;;;;;;0.87;0.40;;;18.20;98.00;;;;;;5078877;28;20226;-51
2021/05/24 09:19:23;;;;;;;0.80;0.40;;;18.20;98.00;;;;;;5074832;28;20193;-49
2021/05/24 09:21:50;;;;;;;1.13;0.60;;;18.00;97.00;;;;;;5037085;28;20968;-50
2021/05/24 09:24:24;;;;;;;1.40;0.33;;;18.00;97.20;;;;;;5068812;28;20603;-48
2021/05/24 09:26:51;;;;;;;0.70;0.40;;;17.80;96.40;;;;;;5073585;28;20927;-51
2021/05/24 09:29:22;;;;;;;3.13;0.63;;;17.90;97.70;;;;;;5076991;28;20213;-49
2021/05/24 09:31:49;;;;;;;2.27;0.50;;;18.00;96.60;;;;;;5073557;28;20213;-47
2021/05/24 09:34:22;;;;;;;2.67;0.90;;;18.10;96.50;;;;;;5074884;28;20202;-45
2021/05/24 09:36:59;;;;;;;0.73;0.57;;;18.20;94.00;;;;;;5072306;28;20243;-47
2021/05/24 09:39:30;;;;;;;2.10;0.50;;;18.10;94.00;;;;;;5046352;28;20258;-46
2021/05/24 09:41:59;;;;;;;1.83;0.53;;;18.10;93.90;;;;;;5075604;28;20659;-43
2021/05/24 09:44:27;;;;;;;0.60;0.30;;;18.20;94.40;;;;;;5081449;28;20190;-45
2021/05/24 09:46:54;;;;;;;0.80;0.30;;;18.30;94.30;;;;;;5069485;28;20236;-46
2021/05/24 09:49:23;;;;;;;2.13;0.50;;;18.40;94.50;;;;;;5080231;28;20210;-48
2021/05/24 09:51:51;;;;;;;0.97;0.43;;;18.60;94.20;;;;;;5067705;28;20271;-44
2021/05/24 09:54:18;;;;;;;0.77;0.30;;;18.70;93.60;;;;;;5061188;28;20209;-49
2021/05/24 09:56:47;;;;;;;0.70;0.30;;;18.60;92.30;;;;;;5081882;28;20234;-44
2021/05/24 09:59:15;;;;;;;0.40;0.40;;;18.60;92.10;;;;;;5072055;28;20213;-48
2021/05/24 10:01:44;;;;;;;2.27;0.53;;;18.60;91.60;;;;;;5075378;28;20205;-46
2021/05/24 10:04:12;;;;;;;3.73;0.50;;;18.60;91.40;;;;;;5082888;28;20186;-45
2021/05/24 10:06:40;;;;;;;0.93;0.30;;;18.80;91.00;;;;;;5072505;28;20218;-44
2021/05/24 10:09:08;;;;;;;2.13;0.30;;;18.90;91.80;;;;;;5064406;28;20234;-44
2021/05/24 10:11:36;;;;;;;3.40;0.50;;;19.10;90.70;;;;;;5085308;28;20199;-46
2021/05/24 10:14:02;;;;;;;0.87;0.30;;;19.30;90.80;;;;;;5077685;28;20547;-47
2021/05/24 10:16:32;;;;;;;3.67;0.80;;;19.30;88.80;;;;;;5081250;28;20213;-48
2021/05/24 10:18:58;;;;;;;0.70;0.30;;;19.30;89.20;;;;;;5072738;28;20226;-47
2021/05/24 10:21:25;;;;;;;1.20;0.50;;;19.50;88.60;;;;;;5083605;28;20186;-47
2021/05/24 10:23:54;;;;;;;1.20;0.47;;;19.70;86.60;;;;;;5081090;28;20201;-45
2021/05/24 10:26:21;;;;;;;1.00;0.30;;;19.90;85.90;;;;;;5065887;28;20682;-45
2021/05/24 10:28:48;;;;;;;0.50;0.30;;;19.90;83.00;;;;;;5077682;28;20210;-45
2021/05/24 10:31:20;;;;;;;0.53;0.50;;;19.90;83.60;;;;;;5079517;28;20281;-44
2021/05/24 10:33:48;;;;;;;6.97;0.63;;;19.80;84.30;;;;;;5082802;28;20190;-43
2021/05/24 10:36:20;;;;;;;0.77;0.30;;;19.70;81.70;;;;;;5066864;28;20214;-46
2021/05/24 10:39:04;;;;;;;1.40;0.40;;;19.70;80.20;;;;;;5080422;28;20198;-46
2021/05/24 10:41:50;;;;;;;5.63;0.30;;;19.80;82.80;;;;;;5066904;28;20229;-45
2021/05/24 10:44:18;;;;;;;2.27;0.30;;;19.90;78.20;;;;;;5074869;28;20197;-46
2021/05/24 10:46:45;;;;;;;1.10;0.40;;;20.00;77.50;;;;;;5070165;28;20222;-44
2021/05/24 10:49:23;;;;;;;0.83;0.40;;;20.00;77.00;;;;;;5076624;28;20573;-45
2021/05/24 10:52:10;;;;;;;0.50;0.30;;;19.80;76.30;;;;;;5078519;28;20200;-44
2021/05/24 10:54:41;;;;;;;0.60;0.40;;;19.60;75.10;;;;;;5078130;28;20583;-43
2021/05/24 10:57:19;;;;;;;2.43;0.63;;;19.50;77.30;;;;;;5080178;28;20981;-42
2021/05/24 10:59:57;;;;;;;0.47;0.30;;;19.70;75.00;;;;;;5067358;28;20729;-44
2021/05/24 11:02:38;;;;;;;0.47;0.30;;;20.00;72.20;;;;;;5079599;28;20205;-44
2021/05/24 11:05:07;;;;;;;0.70;0.30;;;20.30;71.30;;;;;;5077397;28;20297;-44
2021/05/24 11:07:35;;;;;;;1.80;0.40;;;20.30;68.30;;;;;;5083972;28;20603;-45
2021/05/24 11:10:43;;;;;;;0.20;0.17;;;20.20;67.90;;;;;;5067134;28;20226;-45
2021/05/24 11:13:26;;;;;;;0.50;0.20;;;20.20;61.90;;;;;;4998831;28;20204;-44
2021/05/24 11:15:54;;;;;;;1.60;0.33;;;20.20;63.80;;;;;;5060121;28;20931;-45
2021/05/24 11:18:22;;;;;;;1.10;0.40;;;20.10;64.50;;;;;;5079700;28;20198;-45
2021/05/24 11:20:51;;;;;;;1.30;0.30;;;20.20;65.20;;;;;;5080588;28;20562;-45
2021/05/24 11:23:28;;;;;;;0.87;0.30;;;;;;;;;;5084811;28;20191;-46
2021/05/24 11:26:23;;;;;;;0.50;0.33;;;20.50;65.10;;;;;;5066956;28;20233;-46
2021/05/24 11:28:51;;;;;;;1.03;0.10;;;20.60;63.90;;;;;;5069122;28;20217;-49
2021/05/24 11:31:21;;;;;;;0.50;0.10;;;20.70;63.80;;;;;;5075744;28;20694;-45
2021/05/24 11:33:53;;;;;;;1.67;1.30;;;20.70;62.00;;;;;;5095662;28;20191;-44
2021/05/24 11:36:42;;;;;;;2.03;0.30;;;20.80;60.60;;;;;;5082452;28;20206;-45
2021/05/24 11:39:12;;;;;;;0.70;0.40;;;21.00;61.80;;;;;;5080495;28;20321;-45
2021/05/24 11:41:45;;;;;;;0.60;0.30;;;20.90;58.90;;;;;;5063518;28;20202;-46
2021/05/24 11:44:12;;;;;;;1.03;0.30;;;20.90;61.10;;;;;;5076015;28;20277;-45
2021/05/24 11:46:42;;;;;;;1.87;1.77;;;21.20;61.10;;;;;;5077430;28;20258;-46
2021/05/24 11:49:09;;;;;;;3.27;2.60;;;21.20;61.30;;;;;;5081198;28;20240;-48
2021/05/24 11:51:36;;;;;;;1.23;1.20;;;21.40;61.10;;;;;;5078040;28;20201;-44
2021/05/24 11:54:04;;;;;;;1.97;1.87;;;21.50;57.10;;;;;;5081570;28;20880;-45
2021/05/24 11:56:41;;;;;;;25.87;23.40;;;21.30;56.50;;;;;;5082845;28;20236;-49
2021/05/24 11:59:08;;;;;;;31.27;27.73;;;21.20;56.10;;;;;;5078063;28;20667;-45
2021/05/24 12:01:35;;;;;;;2.47;2.27;;;21.30;57.80;;;;;;5078068;28;20198;-48
2021/05/24 12:04:09;;;;;;;3.60;0.60;;;21.40;56.30;;;;;;5081598;28;21060;-46
2021/05/24 12:06:43;;;;;;;0.50;0.40;;;21.50;55.10;;;;;;5074992;28;20281;-45
2021/05/24 12:09:10;;;;;;;1.55;0.40;;;21.50;53.40;;;;;;5082696;28;20213;-45
2021/05/24 12:11:52;;;;;;;0.30;0.30;;;21.50;53.00;;;;;;5077539;28;20742;-47
2021/05/24 12:14:18;;;;;;;0.73;0.40;;;21.30;52.20;;;;;;5075752;28;20621;-47
2021/05/24 12:16:44;;;;;;;0.50;0.40;;;21.10;52.60;;;;;;5075435;28;20218;-45
2021/05/24 12:19:10;;;;;;;0.73;0.27;;;20.90;52.20;;;;;;5080565;28;20200;-46
2021/05/24 12:21:40;;;;;;;1.33;0.20;;;21.00;52.80;;;;;;5069811;28;20895;-45
2021/05/24 12:24:08;;;;;;;3.27;0.40;;;21.20;52.40;;;;;;5081590;28;20202;-46
2021/05/24 12:26:36;;;;;;;0.60;0.17;;;21.20;52.40;;;;;;5067643;28;20279;-45
2021/05/24 12:29:04;;;;;;;1.20;0.40;;;21.30;51.70;;;;;;5068090;28;20217;-46
2021/05/24 12:31:32;;;;;;;0.35;0.22;;;21.30;51.20;;;;;;5078428;28;20265;-46
2021/05/24 12:34:00;;;;;;;1.58;0.35;;;21.40;49.90;;;;;;5084182;28;20210;-45
2021/05/24 12:36:34;;;;;;;0.77;0.50;;;21.40;50.30;;;;;;5074505;28;20977;-45
2021/05/24 12:39:04;;;;;;;0.25;0.20;;;21.40;50.40;;;;;;5078241;28;20232;-46
2021/05/24 12:41:32;;;;;;;0.50;0.30;;;21.50;49.70;;;;;;5074743;28;20293;-44
2021/05/24 12:44:01;;;;;;;0.85;0.10;;;21.60;51.50;;;;;;5069291;28;20209;-45
2021/05/24 12:46:30;;;;;;;3.10;0.37;;;21.70;50.20;;;;;;5079659;28;20237;-45
2021/05/24 12:48:58;;;;;;;3.55;0.50;;;21.80;50.40;;;;;;5077312;28;20217;-45
2021/05/24 12:51:26;;;;;;;0.25;0.25;;;21.90;49.70;;;;;;5082678;28;20635;-44
2021/05/24 12:53:57;;;;;;;1.35;0.30;;;22.00;49.60;;;;;;5104313;28;20217;-46